Time;durP1;ratioP1;P1;durP2;ratioP2;P2;SDS_P1;SDS_P2;PMS_P1;PMS_P2;Temp;Humidity;BMP_temperature;BMP_pressure;BME280_temperature;BME280_humidity;BME280_pressure;Samples;Min_cycle;Max_cycle;Signal;HPM_P1;HPM_P2
2022/05/20 00:00:41;;;;;;;3.30;2.38;;;;;;;15.84;45.25;100738.75;5032538;28;20488;-47
2022/05/20 00:03:07;;;;;;;4.07;2.55;;;;;;;15.63;45.26;100731.78;5033833;28;20026;-48
2022/05/20 00:05:33;;;;;;;3.20;2.30;;;;;;;15.71;46.50;100730.75;5039309;28;20021;-37
2022/05/20 00:07:59;;;;;;;4.22;2.55;;;;;;;15.47;46.67;100725.03;5053238;28;20062;-37
2022/05/20 00:10:27;;;;;;;4.85;2.50;;;;;;;15.33;46.98;100734.19;5053254;28;20036;-37
2022/05/20 00:12:53;;;;;;;4.97;2.40;;;;;;;15.62;46.55;100728.28;5053236;28;20195;-37
2022/05/20 00:15:22;;;;;;;4.40;2.60;;;;;;;15.22;47.21;100720.38;5053420;28;20226;-37
2022/05/20 00:17:48;;;;;;;4.10;2.53;;;;;;;15.14;46.92;100715.25;5052549;28;20028;-36
2022/05/20 00:20:15;;;;;;;4.88;2.40;;;;;;;15.30;46.08;100718.50;5052953;28;20127;-37
2022/05/20 00:22:41;;;;;;;5.00;2.50;;;;;;;15.09;46.30;100722.25;5052935;28;20043;-36
2022/05/20 00:27:53;;;;;;;6.68;2.88;;;;;;;15.27;46.64;100722.44;5052321;28;20116;-37
2022/05/20 00:30:19;;;;;;;6.47;2.95;;;;;;;15.36;46.24;100728.38;5052475;28;20116;-37
2022/05/20 00:32:44;;;;;;;4.53;2.80;;;;;;;15.14;47.01;100714.44;5053003;28;20029;-37
2022/05/20 00:35:11;;;;;;;3.60;2.70;;;;;;;14.47;48.89;100720.63;5049247;28;20101;-37
2022/05/20 00:37:37;;;;;;;4.47;2.80;;;;;;;14.80;47.83;100717.13;5032326;28;20477;-37
2022/05/20 00:40:05;;;;;;;4.82;3.25;;;;;;;14.86;47.87;100723.53;5032921;28;20059;-37
2022/05/20 00:42:30;;;;;;;5.55;2.88;;;;;;;14.85;47.62;100725.38;5033092;28;20017;-37
2022/05/20 00:44:56;;;;;;;5.55;2.90;;;;;;;14.93;47.21;100720.84;5032780;28;20033;-38
2022/05/20 00:47:21;;;;;;;5.13;3.00;;;;;;;15.05;47.63;100711.94;5032818;28;20064;-37
2022/05/20 00:49:53;;;;;;;3.35;2.63;;;;;;;14.50;48.29;100721.25;5032518;28;20033;-37
2022/05/20 00:52:22;;;;;;;5.72;2.78;;;;;;;14.70;48.32;100714.06;5032876;28;20026;-37
2022/05/20 00:54:53;;;;;;;5.35;2.75;;;;;;;14.53;49.00;100713.63;5033012;28;20083;-37
2022/05/20 00:57:27;;;;;;;4.90;2.42;;;;;;;14.61;48.49;100710.75;5032493;28;20071;-37
2022/05/20 00:59:59;;;;;;;4.18;2.35;;;;;;;14.27;49.34;100715.25;5032615;28;20108;-37
2022/05/20 01:02:27;;;;;;;3.95;2.72;;;;;;;14.28;49.25;100718.75;5032762;28;20498;-37
2022/05/20 01:05:00;;;;;;;3.60;2.70;;;;;;;14.43;48.97;100722.06;5032567;28;20029;-37
2022/05/20 01:07:28;;;;;;;4.38;2.78;;;;;;;14.57;48.15;100716.75;5031495;28;20104;-37
2022/05/20 01:09:54;;;;;;;4.45;2.65;;;;;;;14.90;47.80;100718.56;5032200;28;20429;-37
2022/05/20 01:12:21;;;;;;;6.97;2.50;;;;;;;14.62;47.84;100715.09;5032331;28;20025;-37
2022/05/20 01:14:49;;;;;;;4.53;2.78;;;;;;;14.93;47.88;100724.34;5032438;28;20517;-37
2022/05/20 01:17:15;;;;;;;4.05;2.60;;;;;;;15.33;46.76;100729.63;5032133;28;20025;-37
2022/05/20 01:19:53;;;;;;;6.78;2.65;;;;;;;15.48;46.33;100728.53;5032326;28;20053;-37
2022/05/20 01:22:40;;;;;;;6.18;2.65;;;;;;;14.46;48.64;100728.84;5032389;28;20033;-37
2022/05/20 01:25:08;;;;;;;4.60;2.42;;;;;;;14.78;48.31;100729.91;5031918;28;20036;-37
2022/05/20 01:27:36;;;;;;;5.10;2.60;;;;;;;15.00;47.87;100733.22;5032051;28;20033;-37
2022/05/20 01:30:03;;;;;;;4.35;2.30;;;;;;;15.04;47.42;100715.69;5031980;28;20080;-37
2022/05/20 01:32:29;;;;;;;5.03;2.55;;;;;;;15.02;46.76;100722.25;5031796;28;20033;-38
2022/05/20 01:34:55;;;;;;;3.03;2.30;;;;;;;15.28;46.68;100728.63;5033439;28;20136;-38
2022/05/20 01:37:20;;;;;;;3.63;2.50;;;;;;;15.10;46.47;100730.09;5051532;28;20025;-38
2022/05/20 01:39:46;;;;;;;5.03;2.67;;;;;;;15.08;47.25;100737.53;5051670;28;20024;-38
2022/05/20 01:42:22;;;;;;;4.40;2.30;;;;;;;14.88;47.68;100728.69;5051803;28;20029;-38
2022/05/20 01:45:17;;;;;;;3.47;2.70;;;;;;;15.04;47.35;100734.44;5051676;28;20029;-39
2022/05/20 01:47:55;;;;;;;4.78;2.40;;;;;;;14.28;48.37;100738.31;5050263;28;20453;-38
2022/05/20 01:50:33;;;;;;;3.75;2.58;;;;;;;13.77;49.75;100740.66;5051509;28;20044;-38
2022/05/20 01:53:03;;;;;;;4.22;2.60;;;;;;;14.14;49.18;100744.66;5051288;28;20406;-37
2022/05/20 01:55:41;;;;;;;5.03;2.40;;;;;;;13.91;49.72;100742.34;5051647;28;20098;-37
2022/05/20 01:58:30;;;;;;;4.80;2.80;;;;;;;14.30;49.38;100745.31;5051016;28;20068;-38
2022/05/20 02:00:59;;;;;;;4.78;2.80;;;;;;;14.25;48.96;100746.75;5051390;28;20033;-37
2022/05/20 02:03:35;;;;;;;4.22;2.55;;;;;;;13.94;49.31;100741.13;5050288;28;20024;-37
2022/05/20 02:06:16;;;;;;;4.65;2.40;;;;;;;13.96;49.05;100742.56;5050039;28;20112;-38
2022/05/20 02:08:53;;;;;;;;;;;;;;;14.49;47.77;100747.22;5051310;28;20098;-38
2022/05/20 02:11:35;;;;;;;4.60;2.45;;;;;;;14.28;48.59;100732.97;5050836;28;20511;-37
2022/05/20 02:14:15;;;;;;;5.43;2.03;;;;;;;13.79;48.81;100735.94;5050691;28;20021;-37
2022/05/20 02:16:50;;;;;;;5.95;2.40;;;;;;;13.85;48.89;100741.28;5050473;28;20075;-37
2022/05/20 02:19:22;;;;;;;4.03;2.20;;;;;;;14.20;48.29;100732.31;5050316;28;20032;-38
2022/05/20 02:21:52;;;;;;;3.72;2.25;;;;;;;14.35;47.85;100727.59;5050915;28;20033;-37
2022/05/20 02:24:21;;;;;;;3.22;2.10;;;;;;;14.47;47.72;100736.69;5050799;28;20024;-37
2022/05/20 02:26:56;;;;;;;2.70;1.90;;;;;;;14.63;47.14;100734.66;5050766;28;20569;-38
2022/05/20 02:29:27;;;;;;;3.95;2.15;;;;;;;14.86;46.68;100734.25;5050875;28;20126;-37
2022/05/20 02:32:05;;;;;;;2.60;1.95;;;;;;;14.81;46.89;100732.19;5050787;28;20033;-38
2022/05/20 02:34:34;;;;;;;3.10;2.22;;;;;;;14.81;45.98;100736.72;5050706;28;20025;-37
2022/05/20 02:37:01;;;;;;;2.40;2.00;;;;;;;14.85;45.79;100741.47;5032055;28;20036;-38
2022/05/20 02:39:27;;;;;;;6.50;2.20;;;;;;;14.88;45.69;100734.03;5030470;28;20045;-37
2022/05/20 02:41:53;;;;;;;3.45;1.92;;;;;;;14.07;46.94;100739.31;5030891;28;20021;-35
2022/05/20 02:44:19;;;;;;;5.13;2.38;;;;;;;13.74;48.40;100738.38;5030935;28;20032;-36
2022/05/20 02:46:48;;;;;;;4.55;2.03;;;;;;;13.95;48.10;100738.22;5029901;28;20021;-37
2022/05/20 02:49:14;;;;;;;3.13;2.10;;;;;;;14.11;47.77;100739.72;5030576;28;20561;-37
2022/05/20 02:51:40;;;;;;;3.55;2.20;;;;;;;14.35;46.98;100732.97;5030616;28;20045;-36
2022/05/20 02:54:05;;;;;;;4.35;2.10;;;;;;;14.60;46.29;100719.84;5030392;28;20044;-37
2022/05/20 02:56:33;;;;;;;3.80;2.53;;;;;;;14.68;46.63;100726.84;5035479;28;20020;-37
2022/05/20 03:04:47;;;;;;;6.70;1.90;;;;;;;15.01;45.69;100726.00;5008933;28;20044;-37
2022/05/20 03:07:13;;;;;;;3.30;2.00;;;;;;;14.89;46.06;100728.47;5032613;28;20041;-37
2022/05/20 03:09:40;;;;;;;2.75;2.03;;;;;;;14.83;46.97;100730.13;5050188;28;20035;-36
2022/05/20 03:12:06;;;;;;;5.22;3.00;;;;;;;14.80;47.03;100735.09;5050137;28;20025;-37
2022/05/20 03:14:32;;;;;;;7.10;4.85;;;;;;;14.77;47.05;100730.13;5050139;28;20381;-37
2022/05/20 03:17:01;;;;;;;15.15;7.97;;;;;;;14.73;46.90;100731.56;5049880;28;20029;-37
2022/05/20 03:19:30;;;;;;;14.80;9.32;;;;;;;14.61;47.24;100720.66;5049440;28;20029;-36
2022/05/20 03:21:56;;;;;;;9.73;5.65;;;;;;;14.74;50.40;100725.19;5050481;28;20487;-36
2022/05/20 03:24:22;;;;;;;4.15;2.97;;;;;;;14.92;47.02;100729.91;5050555;28;20429;-37
2022/05/20 03:26:47;;;;;;;4.03;2.35;;;;;;;14.96;46.10;100728.47;5049554;28;20448;-37
2022/05/20 03:29:13;;;;;;;5.75;2.17;;;;;;;15.18;45.52;100735.22;5049587;28;20051;-38
2022/05/20 03:31:39;;;;;;;3.33;2.17;;;;;;;14.94;46.34;100734.03;5049294;28;20056;-37
2022/05/20 03:34:06;;;;;;;4.20;2.08;;;;;;;14.93;46.68;100728.91;5034433;28;20052;-36
2022/05/20 03:36:34;;;;;;;3.25;2.38;;;;;;;14.79;46.63;100739.63;5044539;28;20025;-37
2022/05/20 03:39:00;;;;;;;4.95;2.70;;;;;;;14.92;46.80;100741.44;5049093;28;20060;-37
2022/05/20 03:41:25;;;;;;;5.95;2.40;;;;;;;14.82;47.51;100733.03;5049737;28;20420;-37
2022/05/20 03:43:51;;;;;;;6.57;2.58;;;;;;;15.13;46.68;100745.75;5049804;28;20024;-36
2022/05/20 03:46:16;;;;;;;5.18;2.28;;;;;;;15.49;45.71;100744.41;5049185;28;20094;-37
2022/05/20 03:48:41;;;;;;;6.32;2.22;;;;;;;15.93;44.33;100748.19;5050052;28;20048;-37
2022/05/20 03:51:12;;;;;;;4.53;2.30;;;;;;;15.92;45.19;100722.41;5049592;28;20028;-37
2022/05/20 03:53:38;;;;;;;7.45;2.50;;;;;;;16.72;44.01;100745.22;5049558;28;20104;-37
2022/05/20 03:56:04;;;;;;;7.20;2.28;;;;;;;16.96;43.10;100738.19;5046038;28;20121;-37
2022/05/20 03:58:29;;;;;;;4.28;2.20;;;;;;;17.51;42.70;100740.91;5028570;28;20056;-37
2022/05/20 04:03:50;;;;;;;3.67;2.15;;;;;;;18.54;39.91;100751.75;4984091;28;20182;-37
2022/05/20 04:06:15;;;;;;;4.35;2.40;;;;;;;18.87;39.06;100761.22;5029153;28;20026;-37
2022/05/20 04:08:41;;;;;;;5.45;2.90;;;;;;;19.33;38.49;100746.06;5029281;28;20033;-37
2022/05/20 04:11:11;;;;;;;8.90;3.00;;;;;;;19.87;39.68;100741.25;5029319;28;20612;-37
2022/05/20 04:13:40;;;;;;;6.65;2.85;;;;;;;20.52;37.62;100752.66;5029443;28;20103;-36
2022/05/20 04:16:08;;;;;;;6.88;4.60;;;;;;;20.98;36.52;100758.00;5029154;28;20581;-36
2022/05/20 04:18:33;;;;;;;8.30;4.63;;;;;;;21.16;34.98;100751.50;5044525;28;20031;-37
2022/05/20 04:20:59;;;;;;;12.93;7.15;;;;;;;21.50;34.73;100754.16;5047387;28;20116;-40
2022/05/20 04:23:25;;;;;;;8.35;3.50;;;;;;;21.63;34.53;100765.44;5049132;28;20062;-37
2022/05/20 04:25:50;;;;;;;31.88;18.17;;;;;;;21.95;34.39;100755.75;5048201;28;20112;-37
2022/05/20 04:28:16;;;;;;;6.28;4.55;;;;;;;21.91;32.82;100760.84;5048754;28;20057;-48
2022/05/20 04:30:41;;;;;;;13.63;9.02;;;;;;;22.32;32.52;100763.22;5048474;28;20144;-46
2022/05/20 04:33:08;;;;;;;5.43;2.95;;;;;;;22.68;31.17;100769.75;5047165;28;20048;-47
2022/05/20 04:35:34;;;;;;;9.35;3.40;;;;;;;22.98;30.56;100769.16;5038654;28;20048;-46
2022/05/20 04:37:59;;;;;;;7.22;2.65;;;;;;;23.29;30.35;100768.56;5045456;28;20068;-49
2022/05/20 04:40:25;;;;;;;7.18;2.78;;;;;;;23.22;30.27;100760.63;5047234;28;20025;-49
2022/05/20 04:48:22;;;;;;;7.38;3.03;;;;;;;24.30;28.97;100774.63;5051464;28;20076;-47
2022/05/20 04:50:48;;;;;;;15.75;7.97;;;;;;;24.60;28.54;100773.88;5051594;28;20057;-45
2022/05/20 04:54:49;;;;;;;13.05;7.72;;;;;;;24.76;28.23;100780.91;5051224;28;20094;-45
2022/05/20 04:55:58;;;;;;;9.07;3.00;;;;;;;25.29;27.37;100775.16;5049908;28;20029;-45
2022/05/20 04:58:25;;;;;;;6.07;2.50;;;;;;;25.55;27.04;100775.88;5049223;28;20126;-47
2022/05/20 05:00:51;;;;;;;4.90;3.00;;;;;;;25.32;26.59;100779.22;5050292;28;20025;-45
2022/05/20 05:03:16;;;;;;;16.50;11.40;;;;;;;25.29;27.53;100787.97;5051144;28;20090;-46
2022/05/20 05:05:42;;;;;;;7.72;3.55;;;;;;;25.68;26.74;100785.38;5050580;28;20017;-48
2022/05/20 05:08:07;;;;;;;13.13;9.88;;;;;;;26.11;26.65;100790.34;5051148;28;20090;-45
2022/05/20 05:10:33;;;;;;;5.50;3.47;;;;;;;26.04;26.30;100784.38;5051054;28;20032;-48
2022/05/20 05:12:59;;;;;;;12.98;2.92;;;;;;;26.35;26.57;100782.28;5050985;28;20036;-48
2022/05/20 05:15:25;;;;;;;9.98;3.13;;;;;;;26.61;26.65;100784.84;5051232;28;20353;-47
2022/05/20 05:20:34;;;;;;;6.38;4.65;;;;;;;27.63;24.72;100794.75;5051064;28;20044;-50
2022/05/20 05:23:01;;;;;;;6.32;2.88;;;;;;;27.94;24.67;100788.91;5051023;28;20029;-47
2022/05/20 05:25:30;;;;;;;6.72;2.60;;;;;;;27.59;25.07;100790.16;5050495;28;20025;-50
2022/05/20 05:27:55;;;;;;;;;;;;;;;27.60;25.33;100789.84;5051030;28;20135;-49
2022/05/20 05:30:22;;;;;;;9.75;2.70;;;;;;;27.78;24.79;100788.25;5050782;28;19924;-51
2022/05/20 05:32:48;;;;;;;8.73;2.50;;;;;;;27.59;25.22;100795.63;5050634;28;20493;-48
2022/05/20 05:35:17;;;;;;;6.40;2.55;;;;;;;28.11;24.50;100791.13;5046973;28;20025;-48
2022/05/20 05:37:43;;;;;;;9.27;2.60;;;;;;;27.99;25.10;100786.09;5030187;28;20022;-46
2022/05/20 05:40:13;;;;;;;6.53;2.20;;;;;;;27.57;25.24;100786.88;5030583;28;20463;-47
2022/05/20 05:42:41;;;;;;;6.50;2.70;;;;;;;27.48;25.55;100781.25;5030873;28;20485;-50
2022/05/20 05:45:07;;;;;;;7.72;2.47;;;;;;;28.08;24.98;100781.59;5030751;28;20078;-47
2022/05/20 05:47:33;;;;;;;5.93;2.40;;;;;;;28.54;24.42;100779.25;5029548;28;20422;-49
2022/05/20 05:49:58;;;;;;;6.75;2.58;;;;;;;28.55;24.74;100786.38;5030306;28;20041;-50
2022/05/20 05:52:24;;;;;;;6.20;2.40;;;;;;;29.16;24.08;100782.56;5030450;28;20386;-47
2022/05/20 05:54:49;;;;;;;15.65;2.72;;;;;;;29.14;23.90;100786.72;5029693;28;20029;-49
2022/05/20 05:57:14;;;;;;;13.15;2.60;;;;;;;29.29;23.77;100778.22;5030133;28;20025;-48
2022/05/20 05:59:40;;;;;;;4.80;2.40;;;;;;;29.44;23.89;100779.84;5029970;28;20075;-48
2022/05/20 06:02:08;;;;;;;12.32;2.80;;;;;;;29.74;23.51;100783.06;5029333;28;20043;-48
2022/05/20 06:04:34;;;;;;;7.60;2.90;;;;;;;30.15;22.93;100777.47;5030155;28;20037;-50
2022/05/20 06:06:59;;;;;;;10.02;3.17;;;;;;;29.95;23.34;100775.19;5029292;28;20025;-49
2022/05/20 06:09:25;;;;;;;10.82;3.30;;;;;;;30.15;23.45;100777.47;5029792;28;20026;-51
2022/05/20 06:11:50;;;;;;;6.90;2.78;;;;;;;30.50;22.69;100774.22;5029644;28;20022;-51
2022/05/20 06:14:16;;;;;;;10.05;2.65;;;;;;;31.01;22.41;100778.41;5029891;28;20025;-50
2022/05/20 06:16:42;;;;;;;6.07;2.70;;;;;;;31.46;21.73;100777.44;5029645;28;20025;-52
2022/05/20 06:19:08;;;;;;;7.20;2.60;;;;;;;30.84;22.01;100778.28;5029286;28;20332;-47
2022/05/20 06:21:34;;;;;;;10.65;3.53;;;;;;;31.50;21.82;100779.25;5028889;28;20089;-47
2022/05/20 06:24:01;;;;;;;11.23;2.95;;;;;;;30.93;22.38;100774.50;5029762;28;20029;-50
2022/05/20 06:26:32;;;;;;;6.43;2.80;;;;;;;31.06;22.30;100777.47;5029702;28;20068;-48
2022/05/20 06:28:57;;;;;;;7.32;2.85;;;;;;;31.33;21.92;100777.25;5028788;28;20116;-48
2022/05/20 06:31:23;;;;;;;8.80;2.40;;;;;;;30.62;22.55;100776.41;5032211;28;20037;-50
2022/05/20 06:33:48;;;;;;;5.55;2.60;;;;;;;30.25;22.58;100775.63;5049700;28;20036;-48
2022/05/20 06:41:42;;;;;;;7.25;2.28;;;;;;;32.40;20.76;100783.38;5049031;28;20404;-37
2022/05/20 06:44:08;;;;;;;12.45;2.42;;;;;;;32.37;20.26;100766.72;5049792;28;20036;-37
2022/05/20 06:46:34;;;;;;;10.05;2.20;;;;;;;32.68;20.74;100763.78;5049538;28;20037;-37
2022/05/20 06:49:00;;;;;;;6.93;2.38;;;;;;;31.86;21.30;100767.19;5049504;28;20032;-36
2022/05/20 06:51:28;;;;;;;6.82;2.10;;;;;;;32.49;20.38;100742.06;5049439;28;20114;-37
2022/05/20 06:53:56;;;;;;;3.72;2.25;;;;;;;32.41;20.30;100754.72;5049554;28;20037;-38
2022/05/20 06:56:24;;;;;;;8.15;2.45;;;;;;;31.54;20.81;100769.22;5049172;28;20421;-38
2022/05/20 06:58:50;;;;;;;4.90;2.15;;;;;;;31.36;20.95;100764.81;5049401;28;20075;-37
2022/05/20 07:01:16;;;;;;;4.97;2.03;;;;;;;31.62;21.41;100764.06;5048567;28;20469;-37
2022/05/20 07:03:42;;;;;;;8.90;2.15;;;;;;;32.03;20.40;100758.16;5049902;28;20096;-37
2022/05/20 07:06:09;;;;;;;6.03;2.45;;;;;;;31.65;20.68;100763.44;5048466;28;20037;-37
2022/05/20 07:08:36;;;;;;;6.05;2.25;;;;;;;31.17;20.73;100759.56;5046241;28;20028;-49
2022/05/20 07:11:02;;;;;;;3.47;2.10;;;;;;;30.10;21.45;100760.31;5050417;28;20063;-50
2022/05/20 07:13:31;;;;;;;3.33;2.10;;;;;;;30.58;21.80;100757.81;5049799;28;20025;-47
2022/05/20 07:15:57;;;;;;;4.60;2.05;;;;;;;31.76;20.69;100757.31;5032264;28;20147;-49
2022/05/20 07:18:27;;;;;;;4.78;2.05;;;;;;;32.18;20.47;100753.28;5029026;28;20027;-50
2022/05/20 07:20:53;;;;;;;7.90;2.60;;;;;;;32.43;20.14;100754.41;5028770;28;20030;-46
2022/05/20 07:23:18;;;;;;;5.40;2.17;;;;;;;32.00;20.40;100747.75;5029158;28;20028;-50
2022/05/20 07:25:45;;;;;;;5.20;2.20;;;;;;;32.86;19.04;100736.97;5031553;28;20049;-49
2022/05/20 07:28:10;;;;;;;3.97;1.80;;;;;;;32.84;19.43;100748.34;5043676;28;20072;-52
2022/05/20 07:30:36;;;;;;;8.32;1.83;;;;;;;33.06;19.35;100744.50;5031750;28;20497;-48
2022/05/20 07:33:02;;;;;;;4.45;2.10;;;;;;;33.36;18.78;100746.47;5042545;28;20489;-48
2022/05/20 07:35:28;;;;;;;7.10;2.10;;;;;;;33.76;18.63;100746.91;5031458;28;20108;-46
2022/05/20 07:37:53;;;;;;;8.38;2.28;;;;;;;33.31;19.43;100751.03;5028162;28;20018;-49
2022/05/20 07:40:20;;;;;;;4.68;2.00;;;;;;;34.05;18.09;100743.25;5044118;28;20412;-49
2022/05/20 07:42:46;;;;;;;4.55;1.75;;;;;;;34.23;17.60;100741.19;5032132;28;20141;-48
2022/05/20 07:45:13;;;;;;;5.65;1.80;;;;;;;33.09;18.44;100743.00;5041466;28;20026;-48
2022/05/20 07:47:39;;;;;;;3.15;1.70;;;;;;;33.32;17.78;100738.09;5029124;28;20029;-48
2022/05/20 07:50:05;;;;;;;4.07;1.60;;;;;;;33.23;18.13;100737.31;5043048;28;20057;-51
2022/05/20 07:55:22;;;;;;;5.07;1.70;;;;;;;33.31;17.89;100730.94;5040715;28;20032;-48
2022/05/20 07:57:48;;;;;;;3.20;1.60;;;;;;;32.56;18.24;100723.09;5041047;28;20048;-48
2022/05/20 08:00:15;;;;;;;5.55;1.95;;;;;;;32.89;18.91;100728.84;5033835;28;20029;-50
2022/05/20 08:02:42;;;;;;;3.78;1.83;;;;;;;32.33;18.21;100728.03;5045982;28;20453;-48
2022/05/20 08:05:09;;;;;;;3.77;1.30;;;;;;;32.85;17.88;100727.09;5035344;28;20029;-48
2022/05/20 08:07:38;;;;;;;4.97;1.80;;;;;;;33.62;16.98;100732.50;5045956;28;20291;-50
2022/05/20 08:10:09;;;;;;;4.35;2.10;;;;;;;33.56;16.47;100728.34;5048442;28;20037;-37
2022/05/20 08:12:34;;;;;;;3.65;1.58;;;;;;;32.70;17.12;100726.47;5038658;28;20097;-37
2022/05/20 08:14:59;;;;;;;3.80;1.60;;;;;;;33.05;16.73;100720.00;5037650;28;20031;-37
2022/05/20 08:17:26;;;;;;;4.15;1.42;;;;;;;33.75;16.63;100725.16;5038780;28;20465;-37
2022/05/20 08:19:55;;;;;;;4.40;1.50;;;;;;;33.45;16.24;100717.72;5047721;28;20111;-37
2022/05/20 08:22:22;;;;;;;3.65;1.40;;;;;;;32.87;16.32;100711.81;5042229;28;20511;-37
2022/05/20 08:24:57;;;;;;;2.22;1.30;;;;;;;32.15;15.84;100705.19;5043250;28;20516;-37
2022/05/20 08:27:25;;;;;;;3.20;1.50;;;;;;;32.20;16.79;100707.78;5039711;28;20040;-37
2022/05/20 08:29:51;;;;;;;4.15;1.35;;;;;;;32.95;15.68;100703.84;5044562;28;20055;-38
2022/05/20 08:32:17;;;;;;;3.05;1.48;;;;;;;32.19;15.87;100684.13;5040654;28;20025;-36
2022/05/20 08:34:43;;;;;;;4.13;1.30;;;;;;;32.09;15.24;100679.78;5040748;28;20036;-36
2022/05/20 08:37:10;;;;;;;2.95;1.40;;;;;;;32.46;15.71;100684.88;5039565;28;20036;-37
2022/05/20 08:39:36;;;;;;;4.93;1.52;;;;;;;33.22;15.50;100673.06;5041982;28;20033;-37
2022/05/20 08:42:02;;;;;;;2.33;1.10;;;;;;;33.66;14.06;100668.09;5042386;28;20025;-38
2022/05/20 08:44:36;;;;;;;3.78;1.38;;;;;;;33.80;14.71;100678.03;5041718;28;20099;-38
2022/05/20 08:47:36;;;;;;;1.83;1.40;;;;;;;33.29;15.49;100680.81;5038369;28;20116;-37
2022/05/20 08:50:06;;;;;;;4.60;1.65;;;;;;;33.67;14.79;100671.66;5037196;28;20063;-36
2022/05/20 08:52:32;;;;;;;3.17;1.40;;;;;;;33.62;15.20;100671.81;5041518;28;20059;-37
2022/05/20 08:54:58;;;;;;;3.95;1.60;;;;;;;33.73;15.31;100666.72;5038991;28;20032;-37
2022/05/20 08:57:29;;;;;;;3.20;1.42;;;;;;;34.43;13.99;100662.16;5041713;28;20026;-37
2022/05/20 08:59:55;;;;;;;5.78;1.77;;;;;;;34.92;14.59;100666.94;5041628;28;20130;-37
2022/05/20 09:02:22;;;;;;;19.35;9.18;;;;;;;34.67;13.58;100660.56;5039834;28;20025;-37
2022/05/20 09:04:49;;;;;;;4.78;2.58;;;;;;;34.37;14.24;100646.94;5041113;28;20033;-37
2022/05/20 09:07:18;;;;;;;4.60;1.85;;;;;;;34.37;14.28;100651.69;5041513;28;20052;-37
2022/05/20 09:09:59;;;;;;;7.85;4.10;;;;;;;35.20;14.13;100657.94;5039189;28;20501;-37
2022/05/20 09:12:27;;;;;;;7.05;2.58;;;;;;;34.16;14.16;100647.03;5038832;28;20032;-37
2022/05/20 09:18:05;;;;;;;1.92;1.40;;;;;;;33.28;14.56;100646.09;5039073;28;20090;-37
2022/05/20 09:20:31;;;;;;;5.90;2.50;;;;;;;33.14;14.97;100640.06;5039283;28;20021;-37
2022/05/20 09:23:02;;;;;;;3.03;1.50;;;;;;;33.58;14.44;100641.34;5039662;28;20032;-36
2022/05/20 09:25:32;;;;;;;4.30;1.77;;;;;;;34.69;13.65;100641.72;5041447;28;20115;-36
2022/05/20 09:28:27;;;;;;;3.22;1.70;;;;;;;34.85;13.93;100636.28;5038378;28;20032;-37
2022/05/20 09:31:05;;;;;;;3.47;1.40;;;;;;;35.01;13.65;100626.16;5034309;28;20134;-36
2022/05/20 09:33:33;;;;;;;3.30;1.40;;;;;;;35.09;14.31;100620.81;5042055;28;20525;-36
2022/05/20 09:36:01;;;;;;;1.90;1.30;;;;;;;35.53;13.85;100624.53;5041537;28;20060;-37
2022/05/20 09:38:29;;;;;;;;;;;;;;;35.72;13.17;100612.84;5040325;28;20024;-36
2022/05/20 09:40:55;;;;;;;2.30;1.60;;;;;;;34.62;14.45;100614.63;5040062;28;19909;-37
2022/05/20 09:43:28;;;;;;;3.92;1.33;;;;;;;33.86;15.00;100604.91;5040333;28;20037;-37
2022/05/20 09:45:54;;;;;;;3.30;1.50;;;;;;;34.25;14.44;100599.97;5050735;28;20029;-37
2022/05/20 09:48:49;;;;;;;4.75;1.40;;;;;;;35.27;13.61;100600.06;5050245;28;20048;-37
2022/05/20 09:51:19;;;;;;;4.88;1.40;;;;;;;34.93;13.80;100599.41;5046103;28;20041;-35
2022/05/20 09:54:04;;;;;;;3.60;1.60;;;;;;;34.54;13.89;100596.19;5031299;28;20029;-36
2022/05/20 09:56:33;;;;;;;4.10;1.40;;;;;;;33.63;14.09;100588.75;5030192;28;20032;-36
2022/05/20 09:59:17;;;;;;;2.60;1.30;;;;;;;34.06;13.98;100581.97;5031134;28;20112;-36
2022/05/20 10:02:18;;;;;;;3.85;1.40;;;;;;;35.05;13.93;100587.50;5030703;28;20564;-37
2022/05/20 10:05:00;;;;;;;2.28;1.40;;;;;;;36.02;13.58;100590.28;5022161;28;20098;-37
2022/05/20 10:07:37;;;;;;;3.65;1.40;;;;;;;35.58;12.81;100582.75;5030195;28;20478;-37
2022/05/20 10:10:17;;;;;;;4.43;1.50;;;;;;;36.09;12.17;100573.84;5030106;28;20053;-37
2022/05/20 10:12:47;;;;;;;4.25;1.45;;;;;;;35.46;12.16;100576.50;5029351;28;20026;-37
2022/05/20 10:15:30;;;;;;;2.58;1.45;;;;;;;35.33;12.62;100565.47;5029893;28;20033;-37
2022/05/20 10:18:06;;;;;;;3.35;1.40;;;;;;;35.58;11.50;100565.34;5029767;28;20477;-37
2022/05/20 10:20:59;;;;;;;1.88;1.20;;;;;;;35.14;12.75;100565.28;5029537;28;20029;-36
2022/05/20 10:23:27;;;;;;;2.38;1.33;;;;;;;33.39;13.63;100550.78;5030497;28;20040;-36
2022/05/20 10:26:02;;;;;;;1.83;1.30;;;;;;;33.04;14.53;100556.56;5030150;28;20139;-37
2022/05/20 10:34:35;;;;;;;1.80;1.40;;;;;;;34.87;13.37;100547.50;5030011;28;20107;-37
2022/05/20 10:37:07;;;;;;;2.00;1.35;;;;;;;35.09;13.63;100544.22;5039871;28;20033;-37
2022/05/20 10:39:44;;;;;;;3.13;1.65;;;;;;;34.28;13.04;100544.06;5048958;28;20024;-37
2022/05/20 10:42:29;;;;;;;3.17;1.33;;;;;;;34.58;12.47;100541.84;5050094;28;20210;-37
2022/05/20 10:51:04;;;;;;;2.95;1.50;;;;;;;34.58;13.84;100536.34;5049915;28;20090;-37
2022/05/20 10:53:36;;;;;;;5.80;1.58;;;;;;;35.14;14.21;100526.56;5049543;28;20514;-37
2022/05/20 10:56:23;;;;;;;3.13;1.48;;;;;;;34.69;13.11;100531.19;5049216;28;20028;-38
2022/05/20 10:59:10;;;;;;;4.40;1.50;;;;;;;34.40;14.10;100530.22;5049232;28;20040;-36
2022/05/20 11:01:57;;;;;;;2.65;1.40;;;;;;;34.74;12.79;100530.91;5049122;28;20104;-37
2022/05/20 11:04:47;;;;;;;2.50;1.60;;;;;;;34.14;12.79;100515.94;5049866;28;20024;-36
2022/05/20 11:07:15;;;;;;;2.25;1.45;;;;;;;34.06;13.39;100514.88;5049148;28;20068;-36
2022/05/20 11:09:53;;;;;;;3.30;1.60;;;;;;;34.70;13.20;100512.63;5049318;28;20088;-38
2022/05/20 11:13:00;;;;;;;2.90;1.55;;;;;;;34.82;12.54;100509.81;5048974;28;20063;-37
2022/05/20 11:16:03;;;;;;;2.50;1.58;;;;;;;35.61;13.38;100501.00;5040121;28;20123;-37
2022/05/20 11:18:34;;;;;;;3.35;1.50;;;;;;;34.88;13.92;100507.63;5048454;28;20480;-37
2022/05/20 11:21:17;;;;;;;2.33;1.30;;;;;;;35.94;12.92;100497.91;5048335;28;20036;-37
2022/05/20 11:24:18;;;;;;;3.67;1.33;;;;;;;36.20;12.28;100489.09;5049255;28;20405;-37
2022/05/20 11:26:50;;;;;;;4.47;1.60;;;;;;;35.99;11.35;100485.78;5048319;28;20028;-37
2022/05/20 11:29:21;;;;;;;1.85;1.30;;;;;;;35.61;11.90;100487.16;5048044;28;20187;-38
2022/05/20 11:32:00;;;;;;;4.53;1.55;;;;;;;35.14;12.37;100483.09;5049009;28;20060;-37
2022/05/20 11:34:26;;;;;;;3.65;1.50;;;;;;;34.13;12.29;100475.69;5048538;28;20040;-37
2022/05/20 11:37:03;;;;;;;4.07;1.48;;;;;;;33.50;12.94;100474.75;5040126;28;20018;-35
2022/05/20 11:39:47;;;;;;;3.97;1.55;;;;;;;33.61;13.28;100469.63;5028464;28;20025;-36
2022/05/20 11:42:34;;;;;;;1.70;1.40;;;;;;;33.62;13.43;100462.13;5028921;28;20032;-39
2022/05/20 11:45:48;;;;;;;3.17;1.40;;;;;;;34.46;12.34;100464.50;5029041;28;20049;-36
2022/05/20 11:48:43;;;;;;;2.67;1.30;;;;;;;34.87;11.92;100454.31;5024448;28;20520;-36
2022/05/20 11:51:30;;;;;;;2.88;1.70;;;;;;;35.18;12.79;100453.63;5028358;28;20025;-36
2022/05/20 11:54:17;;;;;;;2.95;1.35;;;;;;;34.69;12.06;100451.03;5029044;28;20444;-38
2022/05/20 11:56:57;;;;;;;4.60;1.90;;;;;;;34.68;13.45;100438.34;5028608;28;20032;-37
2022/05/20 11:59:32;;;;;;;4.07;1.60;;;;;;;34.70;13.20;100446.31;5028555;28;20017;-37
2022/05/20 12:02:00;;;;;;;3.35;1.30;;;;;;;33.63;12.73;100431.47;5028643;28;20021;-37
2022/05/20 12:04:29;;;;;;;2.17;1.67;;;;;;;34.08;13.17;100438.88;5028867;28;20045;-35
2022/05/20 12:06:59;;;;;;;4.40;1.58;;;;;;;34.07;12.78;100439.22;5028314;28;20056;-38
2022/05/20 12:09:38;;;;;;;4.15;1.55;;;;;;;33.43;13.24;100427.59;5028459;28;20037;-35
2022/05/20 12:12:06;;;;;;;;;;;;;;;34.26;12.92;100425.63;5028814;28;20025;-37
2022/05/20 12:14:59;;;;;;;3.53;1.40;;;;;;;34.27;13.09;100430.03;5028427;28;19931;-38
2022/05/20 12:17:31;;;;;;;2.70;1.50;;;;;;;33.98;12.61;100419.19;5028450;28;20033;-37
2022/05/20 12:25:50;;;;;;;3.10;1.17;;;;;;;32.82;13.92;100408.09;5028576;28;20068;-37
2022/05/20 12:28:21;;;;;;;2.50;1.20;;;;;;;32.83;13.10;100413.28;5028256;28;20080;-38